sensor_id;sensor_type;location;lat;lon;timestamp;temperature;humidity
13330;DHT22;6734;48.638;8.896;2022-08-03T00:01:27;18.70;99.90
13330;DHT22;6734;48.638;8.896;2022-08-03T00:06:19;19.80;99.90
13330;DHT22;6734;48.638;8.896;2022-08-03T00:08:45;20.30;99.90
13330;DHT22;6734;48.638;8.896;2022-08-03T00:13:36;19.00;99.90
13330;DHT22;6734;48.638;8.896;2022-08-03T00:23:20;18.20;99.90
13330;DHT22;6734;48.638;8.896;2022-08-03T00:25:45;18.40;99.90
13330;DHT22;6734;48.638;8.896;2022-08-03T00:30:37;18.40;99.90
13330;DHT22;6734;48.638;8.896;2022-08-03T00:33:03;18.60;99.90
13330;DHT22;6734;48.638;8.896;2022-08-03T00:35:29;18.80;99.90
13330;DHT22;6734;48.638;8.896;2022-08-03T00:37:55;18.70;99.90
13330;DHT22;6734;48.638;8.896;2022-08-03T00:40:22;18.80;99.90
13330;DHT22;6734;48.638;8.896;2022-08-03T00:42:52;18.80;99.90
13330;DHT22;6734;48.638;8.896;2022-08-03T00:45:20;19.20;99.90
13330;DHT22;6734;48.638;8.896;2022-08-03T00:50:12;19.50;99.90
13330;DHT22;6734;48.638;8.896;2022-08-03T00:52:39;18.80;99.90
13330;DHT22;6734;48.638;8.896;2022-08-03T00:55:05;19.00;99.90
13330;DHT22;6734;48.638;8.896;2022-08-03T00:57:31;19.00;99.90
13330;DHT22;6734;48.638;8.896;2022-08-03T01:02:29;19.40;99.90
13330;DHT22;6734;48.638;8.896;2022-08-03T01:04:55;19.50;99.90
13330;DHT22;6734;48.638;8.896;2022-08-03T01:07:32;18.90;99.90
13330;DHT22;6734;48.638;8.896;2022-08-03T01:15:18;19.00;99.90
13330;DHT22;6734;48.638;8.896;2022-08-03T01:26:12;18.50;99.90
13330;DHT22;6734;48.638;8.896;2022-08-03T01:31:22;18.30;99.90
13330;DHT22;6734;48.638;8.896;2022-08-03T01:36:23;18.00;99.90
13330;DHT22;6734;48.638;8.896;2022-08-03T01:38:53;18.00;99.90
13330;DHT22;6734;48.638;8.896;2022-08-03T01:41:24;17.80;99.90
13330;DHT22;6734;48.638;8.896;2022-08-03T01:43:52;18.10;99.90
13330;DHT22;6734;48.638;8.896;2022-08-03T01:46:19;18.60;99.90
13330;DHT22;6734;48.638;8.896;2022-08-03T01:48:47;18.60;99.90
13330;DHT22;6734;48.638;8.896;2022-08-03T01:53:40;18.10;99.90
13330;DHT22;6734;48.638;8.896;2022-08-03T01:58:36;18.30;99.90
13330;DHT22;6734;48.638;8.896;2022-08-03T02:01:04;18.00;99.90
13330;DHT22;6734;48.638;8.896;2022-08-03T02:03:33;17.80;99.90
13330;DHT22;6734;48.638;8.896;2022-08-03T02:08:28;18.00;99.90
13330;DHT22;6734;48.638;8.896;2022-08-03T02:10:56;18.50;99.90
13330;DHT22;6734;48.638;8.896;2022-08-03T02:13:23;18.50;99.90
13330;DHT22;6734;48.638;8.896;2022-08-03T02:15:49;18.40;99.90
13330;DHT22;6734;48.638;8.896;2022-08-03T02:18:17;18.30;99.90
13330;DHT22;6734;48.638;8.896;2022-08-03T02:23:10;17.60;99.90
13330;DHT22;6734;48.638;8.896;2022-08-03T02:28:12;17.50;99.90
13330;DHT22;6734;48.638;8.896;2022-08-03T02:30:42;17.50;99.90
13330;DHT22;6734;48.638;8.896;2022-08-03T02:35:40;17.80;99.90
13330;DHT22;6734;48.638;8.896;2022-08-03T02:38:09;18.40;99.90
13330;DHT22;6734;48.638;8.896;2022-08-03T02:40:36;18.80;99.90
13330;DHT22;6734;48.638;8.896;2022-08-03T02:45:31;18.50;99.90
13330;DHT22;6734;48.638;8.896;2022-08-03T02:48:02;18.00;99.90
13330;DHT22;6734;48.638;8.896;2022-08-03T02:50:29;18.50;99.90
13330;DHT22;6734;48.638;8.896;2022-08-03T02:52:56;18.50;99.90
13330;DHT22;6734;48.638;8.896;2022-08-03T02:57:51;18.60;99.90
13330;DHT22;6734;48.638;8.896;2022-08-03T03:00:18;18.80;99.90
13330;DHT22;6734;48.638;8.896;2022-08-03T03:02:44;18.70;99.90
13330;DHT22;6734;48.638;8.896;2022-08-03T03:07:37;17.50;99.90
13330;DHT22;6734;48.638;8.896;2022-08-03T03:12:30;17.80;99.90
13330;DHT22;6734;48.638;8.896;2022-08-03T03:14:57;17.80;99.90
13330;DHT22;6734;48.638;8.896;2022-08-03T03:19:50;17.50;99.90
13330;DHT22;6734;48.638;8.896;2022-08-03T03:22:17;17.50;99.90
13330;DHT22;6734;48.638;8.896;2022-08-03T03:32:03;17.70;99.90
13330;DHT22;6734;48.638;8.896;2022-08-03T03:34:29;17.70;99.90
13330;DHT22;6734;48.638;8.896;2022-08-03T03:36:55;17.30;99.90
13330;DHT22;6734;48.638;8.896;2022-08-03T03:39:21;17.00;99.90
13330;DHT22;6734;48.638;8.896;2022-08-03T03:44:12;17.10;99.90
13330;DHT22;6734;48.638;8.896;2022-08-03T03:46:38;17.10;99.90
13330;DHT22;6734;48.638;8.896;2022-08-03T03:49:05;17.00;99.90
13330;DHT22;6734;48.638;8.896;2022-08-03T03:51:31;17.10;99.90
13330;DHT22;6734;48.638;8.896;2022-08-03T03:53:59;17.20;99.90
13330;DHT22;6734;48.638;8.896;2022-08-03T04:03:45;17.80;99.90
13330;DHT22;6734;48.638;8.896;2022-08-03T04:06:11;17.50;99.90
13330;DHT22;6734;48.638;8.896;2022-08-03T04:08:55;17.40;99.90
13330;DHT22;6734;48.638;8.896;2022-08-03T04:11:46;17.50;99.90
13330;DHT22;6734;48.638;8.896;2022-08-03T04:14:23;17.40;99.90
13330;DHT22;6734;48.638;8.896;2022-08-03T04:16:55;17.50;99.90
13330;DHT22;6734;48.638;8.896;2022-08-03T04:19:33;18.00;99.90
13330;DHT22;6734;48.638;8.896;2022-08-03T04:22:03;18.40;99.90
13330;DHT22;6734;48.638;8.896;2022-08-03T04:24:43;18.10;99.90
13330;DHT22;6734;48.638;8.896;2022-08-03T04:27:12;17.90;99.90
13330;DHT22;6734;48.638;8.896;2022-08-03T04:29:42;17.70;99.90
13330;DHT22;6734;48.638;8.896;2022-08-03T04:32:10;17.50;99.90
13330;DHT22;6734;48.638;8.896;2022-08-03T04:34:36;17.40;99.90
13330;DHT22;6734;48.638;8.896;2022-08-03T04:37:06;17.60;99.90
13330;DHT22;6734;48.638;8.896;2022-08-03T04:39:36;17.50;99.90
13330;DHT22;6734;48.638;8.896;2022-08-03T04:42:06;17.30;99.90
13330;DHT22;6734;48.638;8.896;2022-08-03T04:54:20;17.30;99.90
13330;DHT22;6734;48.638;8.896;2022-08-03T04:59:11;17.50;99.90
13330;DHT22;6734;48.638;8.896;2022-08-03T05:01:39;17.60;99.90
13330;DHT22;6734;48.638;8.896;2022-08-03T05:08:57;17.50;99.90
13330;DHT22;6734;48.638;8.896;2022-08-03T05:13:49;17.60;99.90
13330;DHT22;6734;48.638;8.896;2022-08-03T05:18:41;17.90;99.90
13330;DHT22;6734;48.638;8.896;2022-08-03T05:21:08;18.00;99.90
13330;DHT22;6734;48.638;8.896;2022-08-03T05:23:34;18.00;99.90
13330;DHT22;6734;48.638;8.896;2022-08-03T05:25:59;18.20;99.90
13330;DHT22;6734;48.638;8.896;2022-08-03T05:28:25;18.40;99.90
13330;DHT22;6734;48.638;8.896;2022-08-03T05:30:51;18.40;99.90
13330;DHT22;6734;48.638;8.896;2022-08-03T05:40:34;18.70;99.90
13330;DHT22;6734;48.638;8.896;2022-08-03T05:43:00;18.90;99.90
13330;DHT22;6734;48.638;8.896;2022-08-03T05:45:26;18.80;99.90
13330;DHT22;6734;48.638;8.896;2022-08-03T05:50:18;19.10;99.90
13330;DHT22;6734;48.638;8.896;2022-08-03T05:55:11;19.20;99.90
13330;DHT22;6734;48.638;8.896;2022-08-03T05:57:38;19.40;99.90
13330;DHT22;6734;48.638;8.896;2022-08-03T06:00:06;19.70;99.90
13330;DHT22;6734;48.638;8.896;2022-08-03T06:02:32;19.70;99.90
13330;DHT22;6734;48.638;8.896;2022-08-03T06:04:58;19.80;99.90
13330;DHT22;6734;48.638;8.896;2022-08-03T06:09:50;20.10;99.90
13330;DHT22;6734;48.638;8.896;2022-08-03T06:14:41;20.00;99.90
13330;DHT22;6734;48.638;8.896;2022-08-03T06:17:07;20.10;99.90
13330;DHT22;6734;48.638;8.896;2022-08-03T06:26:51;20.60;99.90
13330;DHT22;6734;48.638;8.896;2022-08-03T06:29:16;20.60;99.90
13330;DHT22;6734;48.638;8.896;2022-08-03T06:31:42;20.80;99.90
13330;DHT22;6734;48.638;8.896;2022-08-03T06:43:52;21.30;1.00
13330;DHT22;6734;48.638;8.896;2022-08-03T06:46:19;21.40;11.10
13330;DHT22;6734;48.638;8.896;2022-08-03T06:48:44;21.50;1.00
13330;DHT22;6734;48.638;8.896;2022-08-03T06:51:10;21.60;1.00
13330;DHT22;6734;48.638;8.896;2022-08-03T06:58:29;21.90;1.00
13330;DHT22;6734;48.638;8.896;2022-08-03T07:00:55;22.00;1.00
13330;DHT22;6734;48.638;8.896;2022-08-03T07:03:20;22.10;1.00
13330;DHT22;6734;48.638;8.896;2022-08-03T07:08:13;22.40;1.00
13330;DHT22;6734;48.638;8.896;2022-08-03T07:22:50;23.00;1.00
13330;DHT22;6734;48.638;8.896;2022-08-03T07:25:15;23.10;1.00
13330;DHT22;6734;48.638;8.896;2022-08-03T07:27:45;23.30;99.90
13330;DHT22;6734;48.638;8.896;2022-08-03T07:32:37;23.40;1.00
13330;DHT22;6734;48.638;8.896;2022-08-03T07:35:04;23.50;99.90
13330;DHT22;6734;48.638;8.896;2022-08-03T07:37:31;23.60;99.90
13330;DHT22;6734;48.638;8.896;2022-08-03T07:39:58;23.70;27.80
13330;DHT22;6734;48.638;8.896;2022-08-03T07:44:49;24.00;1.00
13330;DHT22;6734;48.638;8.896;2022-08-03T07:49:45;23.90;1.00
13330;DHT22;6734;48.638;8.896;2022-08-03T07:52:10;23.90;1.00
13330;DHT22;6734;48.638;8.896;2022-08-03T07:59:47;24.40;99.90
13330;DHT22;6734;48.638;8.896;2022-08-03T08:02:12;24.50;99.90
13330;DHT22;6734;48.638;8.896;2022-08-03T08:04:39;24.60;99.90
13330;DHT22;6734;48.638;8.896;2022-08-03T08:09:31;24.80;99.90
13330;DHT22;6734;48.638;8.896;2022-08-03T08:11:56;24.90;99.90
13330;DHT22;6734;48.638;8.896;2022-08-03T08:21:41;25.20;99.90
13330;DHT22;6734;48.638;8.896;2022-08-03T08:24:07;25.30;99.90
13330;DHT22;6734;48.638;8.896;2022-08-03T08:26:33;25.30;99.90
13330;DHT22;6734;48.638;8.896;2022-08-03T08:31:24;25.50;99.90
13330;DHT22;6734;48.638;8.896;2022-08-03T08:36:16;25.90;99.90
13330;DHT22;6734;48.638;8.896;2022-08-03T08:38:42;26.00;99.90
13330;DHT22;6734;48.638;8.896;2022-08-03T08:41:10;26.10;99.90
13330;DHT22;6734;48.638;8.896;2022-08-03T08:43:36;26.40;99.90
13330;DHT22;6734;48.638;8.896;2022-08-03T08:46:02;26.20;99.90
13330;DHT22;6734;48.638;8.896;2022-08-03T08:50:55;26.50;99.90
13330;DHT22;6734;48.638;8.896;2022-08-03T08:53:22;26.30;99.90
13330;DHT22;6734;48.638;8.896;2022-08-03T08:55:49;26.60;99.90
13330;DHT22;6734;48.638;8.896;2022-08-03T08:58:16;26.60;99.90
13330;DHT22;6734;48.638;8.896;2022-08-03T09:00:46;26.60;99.90
13330;DHT22;6734;48.638;8.896;2022-08-03T09:03:13;26.80;99.90
13330;DHT22;6734;48.638;8.896;2022-08-03T09:08:07;26.30;99.90
13330;DHT22;6734;48.638;8.896;2022-08-03T09:10:33;26.60;99.90
13330;DHT22;6734;48.638;8.896;2022-08-03T09:15:28;26.70;99.90
13330;DHT22;6734;48.638;8.896;2022-08-03T09:17:58;27.00;99.90
13330;DHT22;6734;48.638;8.896;2022-08-03T09:20:25;27.10;99.90
13330;DHT22;6734;48.638;8.896;2022-08-03T09:25:30;27.00;99.90
13330;DHT22;6734;48.638;8.896;2022-08-03T09:28:13;27.00;99.90
13330;DHT22;6734;48.638;8.896;2022-08-03T09:30:41;27.20;99.90
13330;DHT22;6734;48.638;8.896;2022-08-03T09:33:09;27.30;99.90
13330;DHT22;6734;48.638;8.896;2022-08-03T09:35:43;27.10;99.90
13330;DHT22;6734;48.638;8.896;2022-08-03T09:38:17;27.10;99.90
13330;DHT22;6734;48.638;8.896;2022-08-03T09:40:44;27.20;99.90
13330;DHT22;6734;48.638;8.896;2022-08-03T09:43:10;27.20;99.90
13330;DHT22;6734;48.638;8.896;2022-08-03T09:45:37;27.30;99.90
13330;DHT22;6734;48.638;8.896;2022-08-03T09:50:58;27.50;99.90
13330;DHT22;6734;48.638;8.896;2022-08-03T09:53:25;27.60;99.90
13330;DHT22;6734;48.638;8.896;2022-08-03T09:55:57;27.70;99.90
13330;DHT22;6734;48.638;8.896;2022-08-03T10:00:58;27.60;99.90
13330;DHT22;6734;48.638;8.896;2022-08-03T10:03:26;27.70;99.90
13330;DHT22;6734;48.638;8.896;2022-08-03T10:05:53;27.70;99.90
13330;DHT22;6734;48.638;8.896;2022-08-03T10:10:47;27.90;99.90
13330;DHT22;6734;48.638;8.896;2022-08-03T10:13:14;27.80;99.90
13330;DHT22;6734;48.638;8.896;2022-08-03T10:15:40;27.80;99.90
13330;DHT22;6734;48.638;8.896;2022-08-03T10:18:06;28.10;99.90
13330;DHT22;6734;48.638;8.896;2022-08-03T10:20:45;28.30;99.90
13330;DHT22;6734;48.638;8.896;2022-08-03T10:23:13;28.30;99.90
13330;DHT22;6734;48.638;8.896;2022-08-03T10:25:43;28.30;99.90
13330;DHT22;6734;48.638;8.896;2022-08-03T10:28:13;28.30;99.90
13330;DHT22;6734;48.638;8.896;2022-08-03T10:30:43;28.30;99.90
13330;DHT22;6734;48.638;8.896;2022-08-03T10:33:23;28.50;1.00
13330;DHT22;6734;48.638;8.896;2022-08-03T10:35:55;28.60;99.90
13330;DHT22;6734;48.638;8.896;2022-08-03T10:38:25;28.60;1.00
13330;DHT22;6734;48.638;8.896;2022-08-03T10:43:24;28.60;99.90
13330;DHT22;6734;48.638;8.896;2022-08-03T10:48:18;28.90;99.90
13330;DHT22;6734;48.638;8.896;2022-08-03T10:50:44;29.00;99.90
13330;DHT22;6734;48.638;8.896;2022-08-03T10:53:10;28.90;99.90
13330;DHT22;6734;48.638;8.896;2022-08-03T11:01:01;29.10;99.90
13330;DHT22;6734;48.638;8.896;2022-08-03T11:08:24;29.40;99.90
13330;DHT22;6734;48.638;8.896;2022-08-03T11:10:53;29.60;99.90
13330;DHT22;6734;48.638;8.896;2022-08-03T11:13:22;29.60;99.90
13330;DHT22;6734;48.638;8.896;2022-08-03T11:15:51;29.70;99.90
13330;DHT22;6734;48.638;8.896;2022-08-03T11:18:17;29.60;99.90
13330;DHT22;6734;48.638;8.896;2022-08-03T11:20:53;29.70;99.90
13330;DHT22;6734;48.638;8.896;2022-08-03T11:23:40;29.60;99.90
13330;DHT22;6734;48.638;8.896;2022-08-03T11:26:10;29.70;99.90
13330;DHT22;6734;48.638;8.896;2022-08-03T11:28:37;29.40;1.00
13330;DHT22;6734;48.638;8.896;2022-08-03T11:39:19;31.30;99.90
13330;DHT22;6734;48.638;8.896;2022-08-03T11:44:40;32.60;99.90
13330;DHT22;6734;48.638;8.896;2022-08-03T11:47:07;32.60;99.90
13330;DHT22;6734;48.638;8.896;2022-08-03T11:49:33;33.00;99.90
13330;DHT22;6734;48.638;8.896;2022-08-03T11:52:00;33.60;99.90
13330;DHT22;6734;48.638;8.896;2022-08-03T11:54:25;32.90;99.90
13330;DHT22;6734;48.638;8.896;2022-08-03T11:56:51;33.10;99.90
13330;DHT22;6734;48.638;8.896;2022-08-03T11:59:16;33.40;99.90
13330;DHT22;6734;48.638;8.896;2022-08-03T12:01:42;33.70;99.90
13330;DHT22;6734;48.638;8.896;2022-08-03T12:04:10;34.70;99.90
13330;DHT22;6734;48.638;8.896;2022-08-03T12:06:36;34.80;99.90
13330;DHT22;6734;48.638;8.896;2022-08-03T12:09:20;35.20;99.90
13330;DHT22;6734;48.638;8.896;2022-08-03T12:11:49;35.50;99.90
13330;DHT22;6734;48.638;8.896;2022-08-03T12:14:16;35.80;99.90
13330;DHT22;6734;48.638;8.896;2022-08-03T12:16:46;35.60;99.90
13330;DHT22;6734;48.638;8.896;2022-08-03T12:19:12;36.10;99.90
13330;DHT22;6734;48.638;8.896;2022-08-03T12:21:48;36.90;99.90
13330;DHT22;6734;48.638;8.896;2022-08-03T12:24:14;36.90;99.90
13330;DHT22;6734;48.638;8.896;2022-08-03T12:26:48;36.40;99.90
13330;DHT22;6734;48.638;8.896;2022-08-03T12:29:21;36.40;99.90
13330;DHT22;6734;48.638;8.896;2022-08-03T12:31:47;36.10;99.90
13330;DHT22;6734;48.638;8.896;2022-08-03T12:39:15;36.70;99.90
13330;DHT22;6734;48.638;8.896;2022-08-03T12:41:41;37.00;99.90
13330;DHT22;6734;48.638;8.896;2022-08-03T12:44:08;37.40;99.90
13330;DHT22;6734;48.638;8.896;2022-08-03T12:46:40;37.30;99.90
13330;DHT22;6734;48.638;8.896;2022-08-03T12:54:15;38.60;99.90
13330;DHT22;6734;48.638;8.896;2022-08-03T12:57:08;39.10;99.90
13330;DHT22;6734;48.638;8.896;2022-08-03T12:59:42;38.20;99.90
13330;DHT22;6734;48.638;8.896;2022-08-03T13:02:17;37.80;99.90
13330;DHT22;6734;48.638;8.896;2022-08-03T13:04:43;38.40;99.90
13330;DHT22;6734;48.638;8.896;2022-08-03T13:07:13;38.90;99.90
13330;DHT22;6734;48.638;8.896;2022-08-03T13:09:50;39.30;99.90
13330;DHT22;6734;48.638;8.896;2022-08-03T13:12:19;39.30;99.90
13330;DHT22;6734;48.638;8.896;2022-08-03T13:14:46;39.40;99.90
13330;DHT22;6734;48.638;8.896;2022-08-03T13:17:12;39.40;99.90
13330;DHT22;6734;48.638;8.896;2022-08-03T13:19:39;40.00;99.90
13330;DHT22;6734;48.638;8.896;2022-08-03T13:22:25;39.60;99.90
13330;DHT22;6734;48.638;8.896;2022-08-03T13:24:54;39.90;99.90
13330;DHT22;6734;48.638;8.896;2022-08-03T13:29:49;39.90;99.90
13330;DHT22;6734;48.638;8.896;2022-08-03T13:34:43;39.80;99.90
13330;DHT22;6734;48.638;8.896;2022-08-03T13:37:08;40.00;99.90
13330;DHT22;6734;48.638;8.896;2022-08-03T13:39:36;40.00;99.90
13330;DHT22;6734;48.638;8.896;2022-08-03T13:42:02;40.20;99.90
13330;DHT22;6734;48.638;8.896;2022-08-03T13:44:28;40.20;1.00
13330;DHT22;6734;48.638;8.896;2022-08-03T13:46:53;39.40;99.90
13330;DHT22;6734;48.638;8.896;2022-08-03T13:49:19;40.50;99.90
13330;DHT22;6734;48.638;8.896;2022-08-03T13:51:44;40.50;99.90
13330;DHT22;6734;48.638;8.896;2022-08-03T13:54:10;41.70;99.90
13330;DHT22;6734;48.638;8.896;2022-08-03T13:59:01;41.10;99.90
13330;DHT22;6734;48.638;8.896;2022-08-03T14:06:21;40.40;99.90
13330;DHT22;6734;48.638;8.896;2022-08-03T14:08:48;41.20;99.90
13330;DHT22;6734;48.638;8.896;2022-08-03T14:16:06;41.00;1.00
13330;DHT22;6734;48.638;8.896;2022-08-03T14:18:32;40.00;99.90
13330;DHT22;6734;48.638;8.896;2022-08-03T14:23:24;40.30;1.00
13330;DHT22;6734;48.638;8.896;2022-08-03T14:25:50;40.50;99.90
13330;DHT22;6734;48.638;8.896;2022-08-03T14:30:42;40.80;99.90
13330;DHT22;6734;48.638;8.896;2022-08-03T14:33:07;40.80;99.90
13330;DHT22;6734;48.638;8.896;2022-08-03T14:37:59;40.50;99.90
13330;DHT22;6734;48.638;8.896;2022-08-03T14:40:24;40.80;99.90
13330;DHT22;6734;48.638;8.896;2022-08-03T14:42:50;40.50;99.90
13330;DHT22;6734;48.638;8.896;2022-08-03T14:45:15;40.50;99.90
13330;DHT22;6734;48.638;8.896;2022-08-03T14:50:08;39.10;99.90
13330;DHT22;6734;48.638;8.896;2022-08-03T14:52:34;39.30;99.90
13330;DHT22;6734;48.638;8.896;2022-08-03T14:59:52;40.80;99.90
13330;DHT22;6734;48.638;8.896;2022-08-03T15:02:18;40.30;99.90
13330;DHT22;6734;48.638;8.896;2022-08-03T15:04:44;40.80;99.90
13330;DHT22;6734;48.638;8.896;2022-08-03T15:07:09;41.20;99.90
13330;DHT22;6734;48.638;8.896;2022-08-03T15:09:35;41.60;99.90
13330;DHT22;6734;48.638;8.896;2022-08-03T15:12:03;41.20;99.90
13330;DHT22;6734;48.638;8.896;2022-08-03T15:14:29;40.60;99.90
13330;DHT22;6734;48.638;8.896;2022-08-03T15:19:21;39.70;99.90
13330;DHT22;6734;48.638;8.896;2022-08-03T15:21:46;39.60;99.90
13330;DHT22;6734;48.638;8.896;2022-08-03T15:24:12;39.90;99.90
13330;DHT22;6734;48.638;8.896;2022-08-03T15:26:37;40.50;99.90
13330;DHT22;6734;48.638;8.896;2022-08-03T15:29:03;40.50;99.90
13330;DHT22;6734;48.638;8.896;2022-08-03T15:33:54;40.60;99.90
13330;DHT22;6734;48.638;8.896;2022-08-03T15:36:20;40.70;99.90
13330;DHT22;6734;48.638;8.896;2022-08-03T15:38:46;40.40;99.90
13330;DHT22;6734;48.638;8.896;2022-08-03T15:41:12;39.70;99.90
13330;DHT22;6734;48.638;8.896;2022-08-03T15:43:39;39.50;99.90
13330;DHT22;6734;48.638;8.896;2022-08-03T15:46:05;39.30;99.90
13330;DHT22;6734;48.638;8.896;2022-08-03T15:48:31;39.60;99.90
13330;DHT22;6734;48.638;8.896;2022-08-03T15:53:22;39.30;99.90
13330;DHT22;6734;48.638;8.896;2022-08-03T15:55:48;38.80;99.90
13330;DHT22;6734;48.638;8.896;2022-08-03T16:03:06;39.70;99.90
13330;DHT22;6734;48.638;8.896;2022-08-03T16:05:32;40.30;99.90
13330;DHT22;6734;48.638;8.896;2022-08-03T16:07:57;40.40;99.90
13330;DHT22;6734;48.638;8.896;2022-08-03T16:10:23;40.50;99.90
13330;DHT22;6734;48.638;8.896;2022-08-03T16:12:49;40.00;99.90
13330;DHT22;6734;48.638;8.896;2022-08-03T16:15:15;39.60;99.90
13330;DHT22;6734;48.638;8.896;2022-08-03T16:20:08;39.80;99.90
13330;DHT22;6734;48.638;8.896;2022-08-03T16:22:41;40.30;99.90
13330;DHT22;6734;48.638;8.896;2022-08-03T16:25:07;40.20;99.90
13330;DHT22;6734;48.638;8.896;2022-08-03T16:27:33;40.10;99.90
13330;DHT22;6734;48.638;8.896;2022-08-03T16:29:59;40.10;99.90
13330;DHT22;6734;48.638;8.896;2022-08-03T16:37:16;39.90;99.90
13330;DHT22;6734;48.638;8.896;2022-08-03T16:39:42;39.00;99.90
13330;DHT22;6734;48.638;8.896;2022-08-03T16:42:07;39.40;99.90
13330;DHT22;6734;48.638;8.896;2022-08-03T16:44:33;39.20;99.90
13330;DHT22;6734;48.638;8.896;2022-08-03T16:47:00;39.10;99.90
13330;DHT22;6734;48.638;8.896;2022-08-03T16:54:19;38.70;99.90
13330;DHT22;6734;48.638;8.896;2022-08-03T16:56:46;38.30;99.90
13330;DHT22;6734;48.638;8.896;2022-08-03T17:26:20;36.80;99.90
13330;DHT22;6734;48.638;8.896;2022-08-03T17:31:16;36.90;99.90
13330;DHT22;6734;48.638;8.896;2022-08-03T17:38:38;35.50;99.90
13330;DHT22;6734;48.638;8.896;2022-08-03T17:53:27;32.50;99.90
13330;DHT22;6734;48.638;8.896;2022-08-03T18:04:07;31.40;99.90
13330;DHT22;6734;48.638;8.896;2022-08-03T18:06:37;31.30;99.90
13330;DHT22;6734;48.638;8.896;2022-08-03T18:23:54;29.90;99.90
13330;DHT22;6734;48.638;8.896;2022-08-03T18:54:10;28.20;99.90
13330;DHT22;6734;48.638;8.896;2022-08-03T18:56:46;28.10;99.90
13330;DHT22;6734;48.638;8.896;2022-08-03T19:07:07;27.80;99.90
13330;DHT22;6734;48.638;8.896;2022-08-03T19:12:09;27.50;99.90
13330;DHT22;6734;48.638;8.896;2022-08-03T19:14:48;27.50;99.90
13330;DHT22;6734;48.638;8.896;2022-08-03T19:17:17;27.50;99.90
13330;DHT22;6734;48.638;8.896;2022-08-03T19:27:03;27.30;99.90
13330;DHT22;6734;48.638;8.896;2022-08-03T19:41:45;26.80;99.90
13330;DHT22;6734;48.638;8.896;2022-08-03T19:44:22;26.60;99.90
13330;DHT22;6734;48.638;8.896;2022-08-03T19:49:26;26.50;99.90
13330;DHT22;6734;48.638;8.896;2022-08-03T19:51:56;26.20;1.00
13330;DHT22;6734;48.638;8.896;2022-08-03T19:59:19;25.80;99.90
13330;DHT22;6734;48.638;8.896;2022-08-03T20:21:16;25.60;99.90
13330;DHT22;6734;48.638;8.896;2022-08-03T20:23:49;25.60;99.90
13330;DHT22;6734;48.638;8.896;2022-08-03T20:28:47;25.10;99.90
13330;DHT22;6734;48.638;8.896;2022-08-03T20:50:44;24.10;99.90
13330;DHT22;6734;48.638;8.896;2022-08-03T20:53:09;24.10;99.90
13330;DHT22;6734;48.638;8.896;2022-08-03T21:02:54;23.80;99.90
13330;DHT22;6734;48.638;8.896;2022-08-03T21:05:21;23.90;99.90
13330;DHT22;6734;48.638;8.896;2022-08-03T21:07:51;23.90;99.90
13330;DHT22;6734;48.638;8.896;2022-08-03T21:10:18;23.80;99.90
13330;DHT22;6734;48.638;8.896;2022-08-03T21:12:53;23.70;99.90
13330;DHT22;6734;48.638;8.896;2022-08-03T21:15:26;23.80;99.90
13330;DHT22;6734;48.638;8.896;2022-08-03T21:17:54;23.70;99.90
13330;DHT22;6734;48.638;8.896;2022-08-03T21:22:55;23.50;99.90
13330;DHT22;6734;48.638;8.896;2022-08-03T21:25:26;23.50;99.90
13330;DHT22;6734;48.638;8.896;2022-08-03T21:27:52;23.30;99.90
13330;DHT22;6734;48.638;8.896;2022-08-03T21:30:19;23.00;99.90
13330;DHT22;6734;48.638;8.896;2022-08-03T21:32:46;23.00;99.90
13330;DHT22;6734;48.638;8.896;2022-08-03T21:35:13;23.10;99.90
13330;DHT22;6734;48.638;8.896;2022-08-03T21:37:40;23.10;99.90
13330;DHT22;6734;48.638;8.896;2022-08-03T21:40:08;23.10;99.90
13330;DHT22;6734;48.638;8.896;2022-08-03T21:42:35;23.20;99.90
13330;DHT22;6734;48.638;8.896;2022-08-03T21:45:04;23.00;99.90
13330;DHT22;6734;48.638;8.896;2022-08-03T21:47:30;22.80;99.90
13330;DHT22;6734;48.638;8.896;2022-08-03T21:50:02;22.80;99.90
13330;DHT22;6734;48.638;8.896;2022-08-03T21:52:31;22.90;99.90
13330;DHT22;6734;48.638;8.896;2022-08-03T21:55:02;22.90;99.90
13330;DHT22;6734;48.638;8.896;2022-08-03T21:57:30;22.50;99.90
13330;DHT22;6734;48.638;8.896;2022-08-03T22:00:21;22.50;99.90
13330;DHT22;6734;48.638;8.896;2022-08-03T22:02:53;22.40;99.90
13330;DHT22;6734;48.638;8.896;2022-08-03T22:05:19;22.40;99.90
13330;DHT22;6734;48.638;8.896;2022-08-03T22:07:45;22.40;99.90
13330;DHT22;6734;48.638;8.896;2022-08-03T22:10:12;22.50;99.90
13330;DHT22;6734;48.638;8.896;2022-08-03T22:12:38;22.50;99.90
13330;DHT22;6734;48.638;8.896;2022-08-03T22:15:07;22.40;99.90
13330;DHT22;6734;48.638;8.896;2022-08-03T22:17:36;22.30;99.90
13330;DHT22;6734;48.638;8.896;2022-08-03T22:22:30;22.20;99.90
13330;DHT22;6734;48.638;8.896;2022-08-03T22:25:37;22.30;99.90
13330;DHT22;6734;48.638;8.896;2022-08-03T22:27:56;22.40;99.90
13330;DHT22;6734;48.638;8.896;2022-08-03T22:30:22;22.40;99.90
13330;DHT22;6734;48.638;8.896;2022-08-03T22:32:49;22.30;99.90
13330;DHT22;6734;48.638;8.896;2022-08-03T22:37:44;22.20;99.90
13330;DHT22;6734;48.638;8.896;2022-08-03T22:40:13;22.20;99.90
13330;DHT22;6734;48.638;8.896;2022-08-03T22:42:41;22.10;99.90
13330;DHT22;6734;48.638;8.896;2022-08-03T22:50:04;22.00;99.90
13330;DHT22;6734;48.638;8.896;2022-08-03T22:52:29;21.70;99.90
13330;DHT22;6734;48.638;8.896;2022-08-03T22:54:55;21.70;99.90
13330;DHT22;6734;48.638;8.896;2022-08-03T22:59:47;21.80;99.90
13330;DHT22;6734;48.638;8.896;2022-08-03T23:04:54;21.70;99.90
13330;DHT22;6734;48.638;8.896;2022-08-03T23:07:27;22.00;99.90
13330;DHT22;6734;48.638;8.896;2022-08-03T23:09:55;21.90;99.90
13330;DHT22;6734;48.638;8.896;2022-08-03T23:12:21;21.60;99.90
13330;DHT22;6734;48.638;8.896;2022-08-03T23:14:51;21.70;99.90
13330;DHT22;6734;48.638;8.896;2022-08-03T23:17:19;21.80;99.90
13330;DHT22;6734;48.638;8.896;2022-08-03T23:19:45;21.80;99.90
13330;DHT22;6734;48.638;8.896;2022-08-03T23:22:11;21.70;99.90
13330;DHT22;6734;48.638;8.896;2022-08-03T23:27:05;21.40;99.90
13330;DHT22;6734;48.638;8.896;2022-08-03T23:29:34;21.20;99.90
13330;DHT22;6734;48.638;8.896;2022-08-03T23:32:01;21.40;99.90
13330;DHT22;6734;48.638;8.896;2022-08-03T23:34:27;21.40;99.90
13330;DHT22;6734;48.638;8.896;2022-08-03T23:37:14;21.40;99.90
13330;DHT22;6734;48.638;8.896;2022-08-03T23:39:45;21.70;99.90
13330;DHT22;6734;48.638;8.896;2022-08-03T23:42:14;21.60;99.90
13330;DHT22;6734;48.638;8.896;2022-08-03T23:49:33;21.80;99.90
13330;DHT22;6734;48.638;8.896;2022-08-03T23:57:07;21.70;99.90
